Time;durP1;ratioP1;P1;durP2;ratioP2;P2;SDS_P1;SDS_P2;PMS_P1;PMS_P2;Temp;Humidity;BMP_temperature;BMP_pressure;BME280_temperature;BME280_humidity;BME280_pressure;Samples;Min_cycle;Max_cycle;Signal;HPM_P1;HPM_P2
2023/12/08 00:01:23;;;;;;;8.20;5.80;;;;;;;18.68;48.44;99715.22;5047546;28;20227;-60
2023/12/08 00:03:48;;;;;;;8.87;5.27;;;;;;;18.66;48.99;99713.97;5053713;28;20214;-60
2023/12/08 00:06:13;;;;;;;7.87;5.70;;;;;;;18.67;48.58;99704.97;5064428;28;20184;-60
2023/12/08 00:08:39;;;;;;;8.10;6.10;;;;;;;18.63;48.60;99698.44;5031040;28;20184;-60
2023/12/08 00:11:05;;;;;;;8.07;5.20;;;;;;;18.63;48.83;99689.84;5058535;28;20191;-60
2023/12/08 00:13:31;;;;;;;7.90;5.10;;;;;;;18.62;49.52;99696.75;5047580;28;20906;-60
2023/12/08 00:15:56;;;;;;;8.80;5.30;;;;;;;18.61;49.15;99688.59;5060631;28;20516;-61
2023/12/08 00:18:22;;;;;;;9.40;5.90;;;;;;;18.60;49.08;99699.19;5064000;28;20203;-60
2023/12/08 00:20:48;;;;;;;7.60;5.60;;;;;;;18.59;49.39;99691.84;5071384;28;20203;-60
2023/12/08 00:23:14;;;;;;;11.53;6.00;;;;;;;18.62;49.76;99684.53;5043443;28;20606;-60
2023/12/08 00:25:40;;;;;;;7.13;5.00;;;;;;;18.60;49.22;99690.63;5031474;28;20640;-60
2023/12/08 00:28:05;;;;;;;7.93;5.33;;;;;;;18.57;49.83;99688.56;5053789;28;20421;-60
2023/12/08 00:30:31;;;;;;;8.63;5.20;;;;;;;18.61;49.48;99677.16;5070096;28;20183;-60
2023/12/08 00:32:56;;;;;;;8.27;5.40;;;;;;;18.56;49.92;99686.91;5036168;28;20665;-60
2023/12/08 00:35:22;;;;;;;6.70;4.80;;;;;;;18.55;49.90;99676.69;5066351;28;20213;-60
2023/12/08 00:37:48;;;;;;;9.60;5.33;;;;;;;18.57;50.01;99674.25;5061921;28;20207;-60
2023/12/08 00:40:14;;;;;;;13.67;5.30;;;;;;;18.56;49.67;99669.75;5071117;28;20642;-60
2023/12/08 00:42:40;;;;;;;6.60;4.93;;;;;;;18.57;49.64;99662.03;5064352;28;20188;-60
2023/12/08 00:45:05;;;;;;;6.77;5.10;;;;;;;18.53;50.31;99672.59;5035627;28;20454;-60
2023/12/08 00:47:31;;;;;;;7.63;4.70;;;;;;;18.55;50.10;99668.13;5057136;28;20171;-60
2023/12/08 00:49:57;;;;;;;8.00;4.97;;;;;;;18.53;50.23;99670.56;5060252;28;20206;-60
2023/12/08 00:52:22;;;;;;;7.40;4.80;;;;;;;18.57;50.08;99671.41;5050373;28;20250;-60
2023/12/08 00:54:48;;;;;;;8.10;4.60;;;;;;;18.54;50.43;99675.06;5049595;28;20179;-60
2023/12/08 00:57:13;;;;;;;6.23;4.30;;;;;;;18.53;50.46;99669.75;5040772;28;20213;-60
2023/12/08 00:59:38;;;;;;;6.33;4.57;;;;;;;18.54;50.59;99659.94;5068437;28;20183;-61
2023/12/08 01:02:04;;;;;;;6.80;4.73;;;;;;;18.53;50.56;99664.84;5053196;28;20223;-60
2023/12/08 01:04:29;;;;;;;7.27;4.80;;;;;;;18.55;50.36;99662.41;5035786;28;20225;-60
2023/12/08 01:06:55;;;;;;;7.43;4.30;;;;;;;18.52;50.61;99660.34;5068665;28;20179;-60
2023/12/08 01:09:20;;;;;;;8.50;4.73;;;;;;;18.52;50.84;99674.63;5054085;28;20187;-60
2023/12/08 01:11:46;;;;;;;8.70;4.83;;;;;;;18.55;50.38;99673.00;5069966;28;20182;-60
2023/12/08 01:14:11;;;;;;;10.23;5.23;;;;;;;18.58;50.51;99667.34;5070434;28;20184;-60
2023/12/08 01:16:40;;;;;;;8.80;4.70;;;;;;;18.55;50.35;99678.72;5070059;28;20186;-60
2023/12/08 01:19:08;;;;;;;6.43;4.07;;;;;;;18.55;50.62;99685.28;5051791;28;20274;-60
2023/12/08 01:21:35;;;;;;;6.07;4.30;;;;;;;18.53;50.86;99687.72;5056883;28;20421;-60
2023/12/08 01:24:00;;;;;;;6.50;4.33;;;;;;;18.55;50.90;99691.00;5052266;28;20520;-60
2023/12/08 01:26:26;;;;;;;7.10;4.70;;;;;;;18.52;50.94;99685.25;5054608;28;20430;-60
2023/12/08 01:28:52;;;;;;;6.43;3.90;;;;;;;18.54;50.66;99695.06;5066942;28;20186;-60
2023/12/08 01:31:17;;;;;;;6.17;4.63;;;;;;;18.51;51.04;99689.34;5033581;28;20180;-61
2023/12/08 01:33:43;;;;;;;6.13;4.40;;;;;;;18.49;51.08;99686.88;5039974;28;20184;-61
2023/12/08 01:36:08;;;;;;;6.07;4.50;;;;;;;18.46;51.10;99710.50;5049615;28;20171;-60
2023/12/08 01:38:34;;;;;;;7.57;5.03;;;;;;;18.45;51.32;99703.16;5058999;28;20302;-61
2023/12/08 01:40:59;;;;;;;6.77;4.40;;;;;;;18.48;51.34;99704.41;5062468;28;20179;-60
2023/12/08 01:43:24;;;;;;;6.73;4.90;;;;;;;18.47;50.79;99700.72;5048119;28;20192;-60
2023/12/08 01:45:50;;;;;;;5.70;4.10;;;;;;;18.47;51.08;99712.16;5049933;28;20179;-60
2023/12/08 01:48:16;;;;;;;8.40;4.90;;;;;;;18.46;51.34;99704.78;5040403;28;20179;-60
2023/12/08 01:50:41;;;;;;;6.10;4.37;;;;;;;18.47;51.29;99712.16;5051400;28;20534;-60
2023/12/08 01:53:07;;;;;;;7.47;4.00;;;;;;;18.49;51.04;99709.72;5068751;28;20201;-60
2023/12/08 01:55:33;;;;;;;6.90;4.80;;;;;;;18.46;51.34;99715.44;5065921;28;20167;-61
2023/12/08 01:58:00;;;;;;;6.63;4.50;;;;;;;18.43;51.40;99711.31;5050792;28;20202;-61
2023/12/08 02:00:44;;;;;;;5.70;4.20;;;;;;;18.43;51.49;99710.47;4918903;28;20437;-61
2023/12/08 02:03:09;;;;;;;7.67;4.47;;;;;;;18.41;51.60;99707.22;5004548;28;20448;-60
2023/12/08 02:05:35;;;;;;;6.63;4.50;;;;;;;18.42;51.98;99700.28;5007907;28;20464;-60
2023/12/08 02:08:00;;;;;;;6.43;4.50;;;;;;;18.42;51.44;99681.06;5004295;28;20172;-60
2023/12/08 02:10:26;;;;;;;10.23;4.83;;;;;;;18.40;52.19;99660.66;5013126;28;20847;-60
2023/12/08 02:12:51;;;;;;;6.17;4.60;;;;;;;18.39;51.43;99658.19;5008127;28;20177;-60
2023/12/08 02:15:17;;;;;;;5.93;4.20;;;;;;;18.42;51.36;99646.78;5005240;28;20192;-60
2023/12/08 02:17:42;;;;;;;6.10;3.83;;;;;;;18.39;51.69;99646.75;4996344;28;20204;-60
2023/12/08 02:20:09;;;;;;;9.70;4.43;;;;;;;18.39;51.41;99650.44;5026123;28;20176;-60
2023/12/08 02:22:35;;;;;;;6.37;4.33;;;;;;;18.39;51.59;99659.03;5006107;28;20264;-60
2023/12/08 02:25:00;;;;;;;5.00;4.20;;;;;;;18.40;51.43;99654.09;5008950;28;20917;-60
2023/12/08 02:27:25;;;;;;;6.20;4.20;;;;;;;18.38;51.30;99674.53;5006367;28;20610;-60
2023/12/08 02:29:51;;;;;;;6.80;4.07;;;;;;;18.39;51.58;99690.47;5029124;28;20188;-60
2023/12/08 02:32:31;;;;;;;5.63;4.10;;;;;;;18.40;51.45;99689.22;5015534;28;20180;-61
2023/12/08 02:34:57;;;;;;;6.20;4.30;;;;;;;18.38;51.71;99679.41;5022058;28;20203;-60
2023/12/08 02:37:23;;;;;;;5.60;4.00;;;;;;;18.38;51.83;99683.09;5028895;28;20504;-60
2023/12/08 02:39:48;;;;;;;6.40;3.97;;;;;;;18.40;51.56;99697.81;5000600;28;20443;-60
2023/12/08 02:42:14;;;;;;;5.23;3.90;;;;;;;18.42;51.68;99689.66;5021730;28;20172;-61
2023/12/08 02:44:40;;;;;;;5.53;4.10;;;;;;;18.49;51.49;99678.28;5028041;28;20181;-60
2023/12/08 02:47:05;;;;;;;5.43;3.90;;;;;;;18.42;52.14;99641.06;5014958;28;20768;-61
2023/12/08 02:49:31;;;;;;;6.70;3.93;;;;;;;18.45;51.08;99633.72;5016836;28;20180;-60
2023/12/08 02:51:56;;;;;;;6.80;4.47;;;;;;;18.44;51.71;99612.09;5024878;28;20184;-60
2023/12/08 02:54:22;;;;;;;6.10;4.60;;;;;;;18.41;51.74;99618.63;5034577;28;20255;-60
2023/12/08 02:56:47;;;;;;;5.57;3.93;;;;;;;18.39;51.49;99621.88;5024990;28;20208;-60
2023/12/08 02:59:12;;;;;;;5.90;4.27;;;;;;;18.40;51.40;99629.22;5032035;28;20180;-60
2023/12/08 03:01:38;;;;;;;5.30;4.00;;;;;;;18.41;51.66;99645.13;5043313;28;20227;-60
2023/12/08 03:04:03;;;;;;;6.50;4.60;;;;;;;18.41;52.18;99656.56;5060331;28;20206;-60
2023/12/08 03:06:29;;;;;;;5.70;3.70;;;;;;;18.40;51.79;99657.78;5075800;28;20182;-60
2023/12/08 03:08:55;;;;;;;5.20;4.00;;;;;;;18.40;51.40;99659.81;5059263;28;20189;-60
2023/12/08 03:11:20;;;;;;;5.40;3.87;;;;;;;18.39;52.10;99652.47;5072931;28;20253;-61
2023/12/08 03:13:46;;;;;;;4.60;3.63;;;;;;;18.32;52.06;99655.25;5047936;28;20268;-60
2023/12/08 03:16:11;;;;;;;5.70;4.27;;;;;;;18.38;51.64;99645.94;5075496;28;20645;-61
2023/12/08 03:18:36;;;;;;;6.27;4.30;;;;;;;18.32;52.03;99650.38;5075207;28;20203;-60
2023/12/08 03:21:02;;;;;;;5.03;3.90;;;;;;;18.33;52.01;99656.91;5069423;28;20184;-60
2023/12/08 03:23:27;;;;;;;5.27;3.60;;;;;;;18.34;51.65;99645.09;5036535;28;20274;-60
2023/12/08 03:25:53;;;;;;;7.03;4.20;;;;;;;18.33;51.93;99643.47;5048190;28;20167;-60
2023/12/08 03:28:18;;;;;;;6.87;3.93;;;;;;;18.33;51.97;99637.75;5061919;28;20180;-60
2023/12/08 03:30:44;;;;;;;6.23;4.00;;;;;;;18.35;51.98;99629.59;5070800;28;20175;-60
2023/12/08 03:33:09;;;;;;;5.90;3.57;;;;;;;18.34;52.08;99635.69;5050782;28;20207;-60
2023/12/08 03:35:35;;;;;;;4.90;3.57;;;;;;;18.32;51.76;99626.66;5055608;28;20229;-61
2023/12/08 03:38:00;;;;;;;6.30;4.30;;;;;;;18.30;51.60;99620.50;5062714;28;20207;-60
2023/12/08 03:40:25;;;;;;;5.00;3.87;;;;;;;18.29;51.99;99613.16;5067093;28;20186;-60
2023/12/08 03:42:51;;;;;;;7.30;3.90;;;;;;;18.29;51.98;99601.72;5070233;28;20245;-60
2023/12/08 03:45:16;;;;;;;4.20;3.50;;;;;;;18.29;52.11;99616.03;5053374;28;20164;-60
2023/12/08 03:47:42;;;;;;;5.30;3.27;;;;;;;18.28;52.19;99615.22;5044818;28;20184;-61
2023/12/08 03:50:08;;;;;;;5.80;4.00;;;;;;;18.31;52.41;99616.47;5066152;28;20901;-60
2023/12/08 03:52:33;;;;;;;5.90;4.23;;;;;;;18.27;52.05;99616.41;5063343;28;20647;-61
2023/12/08 03:54:58;;;;;;;4.00;3.23;;;;;;;18.31;51.85;99614.41;5030538;28;20183;-60
2023/12/08 03:57:24;;;;;;;4.43;3.30;;;;;;;18.33;52.23;99617.75;5048031;28;20211;-60
2023/12/08 03:59:49;;;;;;;4.93;3.40;;;;;;;18.35;51.54;99617.31;5061963;28;20190;-60
2023/12/08 04:02:15;;;;;;;5.60;3.73;;;;;;;18.32;52.11;99613.22;5043611;28;20236;-60
2023/12/08 04:04:43;;;;;;;4.70;3.40;;;;;;;18.33;51.89;99619.75;5059063;28;20211;-61
2023/12/08 04:07:09;;;;;;;5.20;4.10;;;;;;;18.31;52.24;99605.84;5026895;28;20172;-60
2023/12/08 04:09:34;;;;;;;5.30;3.83;;;;;;;18.30;52.03;99598.50;5060548;28;20782;-60
2023/12/08 04:12:00;;;;;;;6.33;3.93;;;;;;;18.32;51.80;99589.53;5053810;28;20182;-60
2023/12/08 04:14:25;;;;;;;4.57;3.50;;;;;;;18.33;51.86;99580.59;5053393;28;20187;-60
2023/12/08 04:16:51;;;;;;;5.87;4.20;;;;;;;18.34;52.15;99565.09;5071448;28;20191;-60
2023/12/08 04:19:19;;;;;;;5.70;4.10;;;;;;;18.35;51.87;99551.59;5063613;28;20183;-61
2023/12/08 04:21:44;;;;;;;5.87;4.10;;;;;;;18.34;52.16;99565.09;5071538;28;20431;-60
2023/12/08 04:24:10;;;;;;;4.70;3.40;;;;;;;18.32;52.14;99549.53;5069972;28;21181;-60
2023/12/08 04:26:35;;;;;;;5.13;3.73;;;;;;;18.31;52.09;99553.59;5034373;28;20176;-60
2023/12/08 04:29:01;;;;;;;4.53;3.40;;;;;;;18.26;52.73;99551.91;5052758;28;20924;-59
2023/12/08 04:31:26;;;;;;;5.40;3.87;;;;;;;18.30;52.07;99549.91;5056231;28;20180;-60
2023/12/08 04:33:52;;;;;;;4.13;3.13;;;;;;;18.33;52.22;99566.31;5055915;28;20183;-61
2023/12/08 04:36:17;;;;;;;6.23;3.30;;;;;;;18.30;52.21;99558.47;5051232;28;20172;-60
2023/12/08 04:38:42;;;;;;;4.57;3.20;;;;;;;18.24;52.22;99565.78;5067276;28;20269;-60
2023/12/08 04:41:08;;;;;;;4.80;3.40;;;;;;;18.27;52.14;99564.19;5053158;28;20184;-60
2023/12/08 04:43:33;;;;;;;5.10;3.77;;;;;;;18.30;51.98;99569.09;5049839;28;20175;-61
2023/12/08 04:45:59;;;;;;;5.60;3.43;;;;;;;18.29;52.22;99574.00;5050044;28;20171;-60
2023/12/08 04:48:24;;;;;;;4.97;3.50;;;;;;;18.26;52.04;99574.78;5064164;28;20186;-60
2023/12/08 04:50:50;;;;;;;4.73;3.63;;;;;;;18.28;52.46;99568.66;5016163;28;20246;-60
2023/12/08 04:53:16;;;;;;;4.97;3.47;;;;;;;18.27;52.38;99569.88;5049950;28;20217;-60
2023/12/08 04:55:41;;;;;;;4.73;3.33;;;;;;;18.24;52.22;99571.50;5022365;28;20443;-60
2023/12/08 04:58:07;;;;;;;4.70;3.63;;;;;;;18.25;52.43;99578.84;5054877;28;20206;-60
2023/12/08 05:00:32;;;;;;;5.17;3.47;;;;;;;18.26;52.50;99583.34;5064666;28;20824;-60
2023/12/08 05:02:58;;;;;;;4.03;3.27;;;;;;;18.26;52.76;99582.53;5050127;28;20231;-60
2023/12/08 05:05:24;;;;;;;7.30;3.10;;;;;;;18.28;52.23;99592.34;5042931;28;20207;-60
2023/12/08 05:07:50;;;;;;;4.23;3.40;;;;;;;18.25;52.33;99592.31;5057545;28;20258;-60
2023/12/08 05:10:16;;;;;;;4.40;3.47;;;;;;;18.29;52.17;99610.31;5038659;28;20434;-60
2023/12/08 05:12:41;;;;;;;4.30;3.03;;;;;;;18.27;52.24;99604.97;5050640;28;20438;-61
2023/12/08 05:15:07;;;;;;;6.20;3.73;;;;;;;18.32;52.14;99610.38;5065127;28;20213;-60
2023/12/08 05:17:32;;;;;;;4.40;3.33;;;;;;;18.37;51.81;99618.56;5050735;28;20242;-60
2023/12/08 05:19:58;;;;;;;4.17;3.07;;;;;;;18.35;51.96;99618.16;5069063;28;20194;-60
2023/12/08 05:22:23;;;;;;;4.57;3.43;;;;;;;18.34;52.07;99610.81;5070110;28;20203;-60
2023/12/08 05:24:49;;;;;;;4.17;3.10;;;;;;;18.37;52.19;99612.03;5058789;28;20233;-60
2023/12/08 05:27:14;;;;;;;5.13;3.63;;;;;;;18.37;52.14;99621.44;5051119;28;20217;-60
2023/12/08 05:29:40;;;;;;;5.10;3.63;;;;;;;18.34;52.01;99622.22;5069737;28;20240;-60
2023/12/08 05:32:06;;;;;;;4.50;3.33;;;;;;;18.35;52.42;99623.88;5048052;28;20195;-60
2023/12/08 05:34:31;;;;;;;5.17;3.03;;;;;;;18.36;51.82;99619.00;5048998;28;20179;-60
2023/12/08 05:36:56;;;;;;;5.00;3.20;;;;;;;18.36;52.24;99610.41;5054844;28;20203;-61
2023/12/08 05:39:22;;;;;;;4.63;3.50;;;;;;;18.37;52.01;99610.00;5042783;28;20183;-60
2023/12/08 05:41:47;;;;;;;5.30;3.40;;;;;;;18.37;51.93;99614.91;5051053;28;20171;-60
2023/12/08 05:44:15;;;;;;;4.33;3.47;;;;;;;18.37;51.94;99609.19;5057160;28;20187;-60
2023/12/08 05:46:40;;;;;;;4.30;3.20;;;;;;;18.34;52.15;99609.97;5059812;28;20604;-60
2023/12/08 05:49:06;;;;;;;5.00;3.73;;;;;;;18.37;52.09;99615.72;5050266;28;20428;-61
2023/12/08 05:51:31;;;;;;;3.70;2.83;;;;;;;18.34;52.17;99613.66;5032727;28;20188;-60
2023/12/08 05:53:56;;;;;;;5.80;3.60;;;;;;;18.33;52.09;99617.75;5030109;28;20239;-60
2023/12/08 05:56:22;;;;;;;4.17;3.30;;;;;;;18.33;52.22;99612.03;5032160;28;20290;-60
2023/12/08 05:58:48;;;;;;;4.37;3.13;;;;;;;18.29;52.25;99613.16;5050837;28;20677;-60
2023/12/08 06:01:13;;;;;;;4.20;2.97;;;;;;;18.33;52.61;99625.47;5055505;28;20235;-60
2023/12/08 06:03:39;;;;;;;3.97;3.40;;;;;;;18.30;52.01;99621.34;5046749;28;20187;-60
2023/12/08 06:06:05;;;;;;;3.93;2.83;;;;;;;18.28;52.83;99623.78;5069106;28;20183;-60
2023/12/08 06:08:30;;;;;;;5.13;3.40;;;;;;;18.27;52.62;99621.31;5063642;28;20245;-60
2023/12/08 06:10:56;;;;;;;4.83;3.20;;;;;;;18.28;52.25;99626.66;5049662;28;20261;-60
2023/12/08 06:13:21;;;;;;;4.27;3.10;;;;;;;18.28;52.47;99626.66;5049221;28;20255;-60
2023/12/08 06:15:47;;;;;;;4.40;3.47;;;;;;;18.28;52.13;99620.94;5038890;28;20184;-60
2023/12/08 06:18:12;;;;;;;4.60;2.67;;;;;;;18.31;52.95;99625.03;5069636;28;20195;-60
2023/12/08 06:20:38;;;;;;;4.20;3.20;;;;;;;18.30;52.05;99621.34;5069325;28;20177;-60
2023/12/08 06:23:03;;;;;;;4.47;2.77;;;;;;;18.29;52.55;99619.72;5069631;28;20537;-59
2023/12/08 06:25:28;;;;;;;4.30;3.30;;;;;;;18.28;52.10;99618.06;5043904;28;20588;-59
2023/12/08 06:27:54;;;;;;;3.67;3.17;;;;;;;18.27;52.25;99627.84;5049166;28;20561;-60
2023/12/08 06:30:19;;;;;;;4.00;3.13;;;;;;;18.27;52.35;99616.41;5063499;28;20579;-60
2023/12/08 06:32:45;;;;;;;3.77;3.00;;;;;;;18.30;52.32;99609.09;5051089;28;20179;-60
2023/12/08 06:35:10;;;;;;;4.43;3.07;;;;;;;18.33;51.98;99605.47;5036502;28;20207;-60
2023/12/08 06:37:37;;;;;;;6.50;3.60;;;;;;;18.35;52.00;99609.56;5067802;28;20232;-60
2023/12/08 06:40:03;;;;;;;4.00;3.10;;;;;;;18.35;52.20;99615.28;5067807;28;20429;-60
2023/12/08 06:42:29;;;;;;;4.40;3.30;;;;;;;18.33;52.19;99611.19;5068186;28;20272;-59
2023/12/08 06:44:55;;;;;;;4.93;3.27;;;;;;;18.37;51.94;99614.91;5037798;28;20537;-60
2023/12/08 06:47:20;;;;;;;3.83;2.60;;;;;;;18.37;52.16;99615.72;5043952;28;20179;-59
2023/12/08 06:49:46;;;;;;;4.10;3.00;;;;;;;18.38;52.24;99620.22;5048127;28;20209;-59
2023/12/08 06:52:11;;;;;;;4.50;3.37;;;;;;;18.34;52.50;99619.38;5031437;28;20206;-59
2023/12/08 06:54:36;;;;;;;4.70;2.73;;;;;;;18.36;52.47;99619.00;5066512;28;20267;-60
2023/12/08 06:57:02;;;;;;;7.00;3.17;;;;;;;18.35;52.21;99615.28;5049456;28;20211;-60
2023/12/08 06:59:27;;;;;;;4.90;3.30;;;;;;;18.39;52.18;99619.00;5055782;28;20179;-59
2023/12/08 07:01:53;;;;;;;3.73;2.87;;;;;;;18.39;51.89;99621.88;5040318;28;20227;-59
2023/12/08 07:04:18;;;;;;;5.20;2.77;;;;;;;18.39;51.94;99627.59;5061166;28;20222;-60
2023/12/08 07:06:45;;;;;;;4.07;2.77;;;;;;;18.42;52.25;99628.81;5058470;28;20210;-60
2023/12/08 07:09:11;;;;;;;4.37;3.07;;;;;;;18.41;52.15;99632.91;5068593;28;20210;-60
2023/12/08 07:11:36;;;;;;;3.70;2.77;;;;;;;18.41;51.67;99628.00;5045871;28;20442;-59
2023/12/08 07:14:02;;;;;;;4.20;3.23;;;;;;;18.38;52.15;99631.66;5036556;28;20439;-60
2023/12/08 07:16:27;;;;;;;3.40;2.90;;;;;;;18.36;52.46;99625.50;5063668;28;20616;-59
2023/12/08 07:18:53;;;;;;;4.00;3.23;;;;;;;18.35;52.29;99628.75;5054258;28;20577;-60
2023/12/08 07:21:18;;;;;;;3.90;3.07;;;;;;;18.33;52.70;99619.75;5066564;28;20195;-60
2023/12/08 07:23:43;;;;;;;3.53;2.73;;;;;;;18.33;52.66;99617.75;5045894;28;20180;-60
2023/12/08 07:26:10;;;;;;;4.27;2.97;;;;;;;18.36;52.22;99625.50;5064799;28;20175;-59
2023/12/08 07:28:36;;;;;;;3.90;2.90;;;;;;;18.39;51.94;99627.59;5053895;28;20655;-59
2023/12/08 07:31:01;;;;;;;4.27;3.03;;;;;;;18.34;52.58;99627.13;5069925;28;20958;-60
2023/12/08 07:33:27;;;;;;;3.87;2.90;;;;;;;18.34;52.45;99624.25;5043757;28;20434;-60
2023/12/08 07:35:52;;;;;;;4.90;2.60;;;;;;;18.31;52.42;99620.13;5052305;28;20217;-59
2023/12/08 07:38:18;;;;;;;3.67;2.87;;;;;;;18.32;52.47;99629.53;5040902;28;20216;-60
2023/12/08 07:40:44;;;;;;;4.60;3.20;;;;;;;18.33;52.49;99634.06;5044964;28;20186;-59
2023/12/08 07:43:10;;;;;;;4.53;3.30;;;;;;;18.34;52.54;99636.53;5034618;28;20656;-60
2023/12/08 07:45:35;;;;;;;4.47;3.27;;;;;;;18.31;52.61;99637.28;5049065;28;20575;-59
2023/12/08 07:48:00;;;;;;;3.37;2.60;;;;;;;18.33;52.84;99634.88;5056577;28;20176;-60
2023/12/08 07:50:26;;;;;;;5.33;3.03;;;;;;;18.34;52.39;99638.53;5045539;28;20227;-59
2023/12/08 07:52:54;;;;;;;3.80;2.97;;;;;;;18.31;52.46;99642.97;5070633;28;20163;-60
2023/12/08 07:55:19;;;;;;;4.20;3.30;;;;;;;18.35;52.48;99646.72;5051495;28;20191;-60
2023/12/08 07:57:46;;;;;;;5.20;3.30;;;;;;;18.33;52.46;99648.34;5068603;28;20473;-60
2023/12/08 08:00:12;;;;;;;4.07;2.80;;;;;;;18.35;52.36;99649.59;5045947;28;20195;-60
2023/12/08 08:02:37;;;;;;;4.00;3.00;;;;;;;18.36;52.01;99654.06;5012801;28;20466;-60
2023/12/08 08:05:04;;;;;;;4.13;2.67;;;;;;;18.30;52.20;99672.78;5046633;28;20852;-59
2023/12/08 08:07:30;;;;;;;10.17;7.50;;;;;;;17.79;51.83;99663.28;5042207;28;20327;-59
2023/12/08 08:09:56;;;;;;;15.73;10.23;;;;;;;17.54;47.15;99665.06;5039021;28;20442;-60
2023/12/08 08:12:21;;;;;;;15.20;11.93;;;;;;;17.69;49.03;99669.72;5040727;28;20736;-61
2023/12/08 08:14:46;;;;;;;18.10;9.80;;;;;;;17.86;46.01;99662.56;5040348;28;21796;-60
2023/12/08 08:17:12;;;;;;;19.97;9.07;;;;;;;18.35;43.39;99668.75;5038888;28;20195;-61
2023/12/08 08:19:38;;;;;;;11.77;8.57;;;;;;;18.98;43.23;99666.38;5038234;28;20184;-61
2023/12/08 08:22:03;;;;;;;9.80;7.20;;;;;;;19.49;42.90;99649.91;5020066;28;20613;-60
2023/12/08 08:24:28;;;;;;;10.40;8.03;;;;;;;19.82;42.36;99649.63;5040573;28;20175;-60
2023/12/08 08:26:54;;;;;;;12.93;6.87;;;;;;;20.03;41.94;99652.53;5050192;28;20179;-60
2023/12/08 08:29:20;;;;;;;8.77;6.63;;;;;;;20.15;41.96;99643.56;5065256;22;20232;-65
2023/12/08 08:31:45;;;;;;;8.70;6.40;;;;;;;20.28;42.27;99647.66;4993629;28;20180;-64
2023/12/08 08:34:10;;;;;;;7.83;6.03;;;;;;;20.31;42.18;99646.88;5012056;28;20212;-66
2023/12/08 08:36:36;;;;;;;9.30;5.97;;;;;;;20.20;41.95;99661.19;5005077;28;20188;-64
2023/12/08 08:39:03;;;;;;;10.53;6.57;;;;;;;20.15;42.56;99652.97;5001136;28;20169;-65
2023/12/08 08:41:28;;;;;;;8.00;5.60;;;;;;;20.11;42.22;99655.03;5014589;28;20201;-64
2023/12/08 08:43:54;;;;;;;9.83;6.57;;;;;;;20.07;42.35;99659.91;4998344;28;20459;-65
2023/12/08 08:46:19;;;;;;;8.23;5.40;;;;;;;19.95;42.28;99665.19;5018729;28;20184;-64
2023/12/08 08:48:45;;;;;;;9.03;6.13;;;;;;;19.76;42.43;99657.78;5028691;28;20187;-64
2023/12/08 08:51:11;;;;;;;13.67;6.27;;;;;;;19.51;42.80;99665.47;4995734;28;20232;-64
2023/12/08 08:53:37;;;;;;;9.57;6.37;;;;;;;19.63;43.16;99655.69;5009463;28;20639;-64
2023/12/08 08:56:02;;;;;;;9.83;6.40;;;;;;;19.74;42.92;99668.84;5009454;28;20440;-65
2023/12/08 08:58:29;;;;;;;11.67;7.03;;;;;;;19.70;43.32;99670.84;4999237;28;20224;-64
2023/12/08 09:00:55;;;;;;;12.63;6.43;;;;;;;19.63;43.56;99667.97;5012108;28;20197;-64
2023/12/08 09:03:20;;;;;;;11.43;6.40;;;;;;;19.62;43.82;99660.59;5001767;28;20488;-65
2023/12/08 09:05:45;;;;;;;9.40;6.70;;;;;;;19.29;43.99;99658.00;5013105;28;20204;-71
2023/12/08 09:08:11;;;;;;;11.83;7.77;;;;;;;19.05;44.61;99655.81;5004960;28;20185;-71
2023/12/08 09:10:38;;;;;;;12.87;7.70;;;;;;;19.05;44.99;99654.97;5012826;28;20181;-71
2023/12/08 09:13:03;;;;;;;13.73;8.60;;;;;;;19.09;46.24;99662.38;5021148;28;20264;-73
2023/12/08 09:15:29;;;;;;;15.17;7.77;;;;;;;19.16;45.20;99664.47;5003607;28;20866;-71
2023/12/08 09:17:55;;;;;;;12.63;8.00;;;;;;;19.03;46.26;99658.25;5010311;28;20985;-71
2023/12/08 09:20:22;;;;;;;13.70;8.03;;;;;;;19.09;45.82;99673.81;5011414;28;20187;-70
2023/12/08 09:22:47;;;;;;;15.40;9.30;;;;;;;18.92;46.74;99676.56;5005670;28;20431;-69
2023/12/08 09:25:12;;;;;;;17.20;9.00;;;;;;;18.91;45.72;99687.19;5009425;28;21088;-71
2023/12/08 09:27:38;;;;;;;18.77;11.07;;;;;;;18.91;46.01;99692.91;5005490;28;20590;-71
2023/12/08 09:30:05;;;;;;;16.80;10.77;;;;;;;18.86;45.71;99689.59;4989259;28;20221;-70
2023/12/08 09:32:30;;;;;;;18.00;11.13;;;;;;;18.84;45.65;99692.88;4999062;28;20179;-71
2023/12/08 09:34:56;;;;;;;21.20;11.77;;;;;;;18.78;45.83;99691.59;5019725;28;20962;-71
2023/12/08 09:37:21;;;;;;;18.17;10.83;;;;;;;18.66;45.84;99697.63;5012083;28;20205;-71
2023/12/08 09:39:47;;;;;;;18.37;10.20;;;;;;;18.67;45.96;99692.72;5019142;28;20195;-70
2023/12/08 09:42:38;;;;;;;14.70;9.63;;;;;;;18.65;45.78;99692.28;5017250;28;20188;-71
2023/12/08 09:45:09;;;;;;;15.00;10.00;;;;;;;18.69;46.71;99696.84;5010282;28;20181;-68
2023/12/08 09:47:35;;;;;;;17.77;9.50;;;;;;;18.64;46.31;99684.94;5010236;28;21005;-71
2023/12/08 09:50:02;;;;;;;15.67;9.00;;;;;;;18.58;46.70;99701.66;5003944;28;20431;-72
2023/12/08 09:52:27;;;;;;;15.07;9.43;;;;;;;18.63;49.09;99701.28;4996695;28;20260;-70
2023/12/08 09:54:53;;;;;;;20.10;9.70;;;;;;;18.75;49.43;99689.53;5009673;28;20435;-71
2023/12/08 09:57:19;;;;;;;15.63;8.87;;;;;;;18.87;50.11;99694.09;5000951;28;20622;-71
2023/12/08 09:59:46;;;;;;;23.83;9.77;;;;;;;18.77;50.96;99687.06;5016052;28;20180;-71
2023/12/08 10:02:11;;;;;;;22.63;10.53;;;;;;;18.69;50.89;99682.53;4996383;28;20473;-70
2023/12/08 10:04:37;;;;;;;23.97;10.10;;;;;;;18.66;51.35;99691.91;5005466;28;20755;-70
2023/12/08 10:07:06;;;;;;;19.37;9.33;;;;;;;18.62;51.75;99691.03;5010527;28;20200;-70
2023/12/08 10:09:32;;;;;;;19.03;9.13;;;;;;;18.64;51.81;99674.34;4991272;28;20211;-69
2023/12/08 10:11:57;;;;;;;21.03;9.80;;;;;;;18.62;52.39;99682.47;4990143;28;20443;-70
2023/12/08 10:14:25;;;;;;;16.67;9.17;;;;;;;18.65;51.50;99675.97;5008370;28;21221;-64
2023/12/08 10:16:50;;;;;;;13.47;7.60;;;;;;;18.67;51.40;99678.44;5007817;28;20157;-65
2023/12/08 10:19:21;;;;;;;20.00;9.27;;;;;;;18.65;51.63;99672.28;5007175;28;20451;-63
2023/12/08 10:22:05;;;;;;;17.13;8.10;;;;;;;18.67;51.78;99678.44;4990720;28;20157;-64
2023/12/08 10:24:30;;;;;;;18.13;8.97;;;;;;;18.65;51.92;99678.00;5007526;28;20444;-64
2023/12/08 10:26:59;;;;;;;18.43;8.80;;;;;;;18.62;52.19;99675.94;4991624;28;20890;-64
2023/12/08 10:29:31;;;;;;;13.77;8.10;;;;;;;18.62;51.78;99679.59;4991464;28;20734;-63
2023/12/08 10:31:57;;;;;;;14.50;7.70;;;;;;;18.63;51.67;99669.84;5009746;28;20796;-63
2023/12/08 10:34:23;;;;;;;18.30;9.17;;;;;;;18.66;52.02;99671.09;5009181;28;20452;-64
2023/12/08 10:36:49;;;;;;;17.63;8.27;;;;;;;18.67;51.90;99675.56;4991706;28;20752;-63
2023/12/08 10:39:17;;;;;;;15.80;8.20;;;;;;;18.65;52.03;99670.25;4991517;28;20645;-64
2023/12/08 10:41:42;;;;;;;17.83;7.83;;;;;;;18.66;52.02;99674.75;4990500;28;20199;-65
2023/12/08 10:44:08;;;;;;;16.90;7.87;;;;;;;18.65;52.29;99664.53;5005922;28;20433;-64
2023/12/08 10:46:34;;;;;;;19.67;7.37;;;;;;;18.65;51.75;99655.94;5008394;28;20259;-63
2023/12/08 10:48:59;;;;;;;13.17;8.30;;;;;;;18.64;52.08;99660.03;5006999;28;21096;-64
2023/12/08 10:51:25;;;;;;;16.87;7.83;;;;;;;18.63;52.18;99652.69;5006436;28;20192;-64
2023/12/08 10:53:50;;;;;;;21.00;7.90;;;;;;;18.63;51.89;99658.41;4990655;28;20594;-63
2023/12/08 10:56:16;;;;;;;15.83;7.27;;;;;;;18.65;52.01;99660.84;4989835;28;20640;-64
2023/12/08 10:58:42;;;;;;;17.87;6.90;;;;;;;18.62;52.06;99659.59;4976266;28;20295;-63
2023/12/08 11:01:14;;;;;;;15.10;6.93;;;;;;;18.64;52.22;99659.19;4995988;28;20918;-63
2023/12/08 11:03:41;;;;;;;16.50;7.47;;;;;;;18.64;52.63;99662.06;4998606;28;20597;-64
2023/12/08 11:06:10;;;;;;;18.37;7.03;;;;;;;18.65;52.49;99658.81;4979168;28;20481;-63
2023/12/08 11:08:35;;;;;;;14.73;6.67;;;;;;;18.64;52.73;99662.06;5012111;28;20506;-64
2023/12/08 11:11:03;;;;;;;14.10;7.40;;;;;;;18.62;52.76;99667.38;5013449;28;20478;-64
2023/12/08 11:13:29;;;;;;;15.83;7.80;;;;;;;18.61;52.60;99672.25;5010841;28;20234;-64
2023/12/08 11:16:12;;;;;;;11.77;7.40;;;;;;;18.61;52.56;99672.25;5012557;28;20791;-64
2023/12/08 11:18:38;;;;;;;16.77;7.00;;;;;;;18.65;52.65;99669.41;4994750;28;20471;-64
2023/12/08 11:21:06;;;;;;;12.70;7.17;;;;;;;18.67;52.34;99658.41;4995066;28;20879;-64
2023/12/08 11:23:33;;;;;;;12.13;7.20;;;;;;;18.63;52.55;99675.56;5014417;28;20420;-63
2023/12/08 11:26:06;;;;;;;10.23;6.77;;;;;;;18.63;52.49;99669.00;5010269;28;20447;-70